Time;durP1;ratioP1;P1;durP2;ratioP2;P2;SDS_P1;SDS_P2;PMS_P1;PMS_P2;Temp;Humidity;BMP_temperature;BMP_pressure;BME280_temperature;BME280_humidity;BME280_pressure;Samples;Min_cycle;Max_cycle;Signal;HPM_P1;HPM_P2
2021/09/08 00:00:32;;;;;;;;;9.50;8.00;;;;;-147.91;100.00;58652.34;5080819;22;46414;-79
2021/09/08 00:02:59;;;;;;;;;12.25;12.25;;;;;-147.91;100.00;58652.34;5059512;28;49006;-79
2021/09/08 00:05:25;;;;;;;;;11.25;10.00;;;;;-147.91;100.00;58652.34;5046915;28;45620;-80
2021/09/08 00:07:51;;;;;;;;;9.25;8.00;;;;;-147.91;100.00;58652.34;5047799;27;45749;-79
2021/09/08 00:10:19;;;;;;;;;11.75;11.00;;;;;-147.91;100.00;58652.34;5147149;22;45490;-76
2021/09/08 00:12:47;;;;;;;;;10.25;9.50;;;;;-147.91;100.00;58652.34;5265707;22;45641;-96
2021/09/08 00:15:15;;;;;;;;;18.50;16.50;;;;;-147.91;100.00;58652.34;5098338;27;45263;-96
2021/09/08 00:17:43;;;;;;;;;12.00;11.00;;;;;-147.91;100.00;58652.34;5103534;27;45339;-96
2021/09/08 00:20:12;;;;;;;;;11.75;10.75;;;;;-147.91;100.00;58652.34;5085779;27;45210;-96
2021/09/08 00:22:40;;;;;;;;;13.50;13.25;;;;;-147.91;100.00;58652.34;5085523;27;45416;-96
2021/09/08 00:25:08;;;;;;;;;10.25;10.00;;;;;-147.91;100.00;58652.34;5106007;27;45411;-95
2021/09/08 00:27:36;;;;;;;;;12.50;11.00;;;;;-147.91;100.00;58652.34;5108858;27;45498;-96
2021/09/08 00:30:05;;;;;;;;;14.25;11.50;;;;;-147.91;100.00;58652.34;5108375;27;45409;-96
2021/09/08 00:32:35;;;;;;;;;12.50;11.25;;;;;-147.91;100.00;58652.34;5109264;27;44684;-96
2021/09/08 00:35:04;;;;;;;;;11.50;9.75;;;;;-147.91;100.00;58652.34;5109096;27;44607;-96
2021/09/08 00:37:36;;;;;;;;;19.00;14.75;;;;;-147.91;100.00;58652.34;5110903;27;45282;-96
2021/09/08 00:40:03;;;;;;;;;15.00;11.25;;;;;-147.91;100.00;58652.34;5090134;27;47626;-96
2021/09/08 00:42:31;;;;;;;;;11.50;11.50;;;;;-147.91;100.00;58652.34;5092178;27;45461;-96
2021/09/08 00:44:58;;;;;;;;;18.75;15.25;;;;;-147.91;100.00;58652.34;5092834;27;44731;-96
2021/09/08 00:47:24;;;;;;;;;12.00;10.00;;;;;-147.91;100.00;58652.34;5108233;27;45418;-96
2021/09/08 00:49:51;;;;;;;;;11.50;9.25;;;;;-147.91;100.00;58652.34;5106754;27;45395;-96
2021/09/08 00:52:19;;;;;;;;;15.00;13.75;;;;;-147.91;100.00;58652.34;5112114;27;45482;-96
2021/09/08 00:54:52;;;;;;;;;11.75;11.75;;;;;-147.91;100.00;58652.34;5110468;27;45193;-96
2021/09/08 00:57:22;;;;;;;;;12.75;11.00;;;;;-147.91;100.00;58652.34;5110698;27;45515;-96
2021/09/08 00:59:50;;;;;;;;;12.75;12.25;;;;;-147.91;100.00;58652.34;5110891;27;46402;-96
2021/09/08 01:02:18;;;;;;;;;14.25;12.50;;;;;-147.91;100.00;58652.34;5090360;27;45639;-96
2021/09/08 01:04:47;;;;;;;;;13.75;11.75;;;;;-147.91;100.00;58652.34;5092847;27;45215;-96
2021/09/08 01:07:15;;;;;;;;;12.25;11.25;;;;;-147.91;100.00;58652.34;5110232;27;45539;-96
2021/09/08 01:09:46;;;;;;;;;15.75;11.00;;;;;-147.91;100.00;58652.34;5111090;27;45714;-96
2021/09/08 01:12:15;;;;;;;;;13.75;12.50;;;;;-147.91;100.00;58652.34;5109142;27;45455;-96
2021/09/08 01:14:42;;;;;;;;;15.00;14.50;;;;;-147.91;100.00;58652.34;5091195;27;45428;-96
2021/09/08 01:17:09;;;;;;;;;13.75;12.25;;;;;-147.91;100.00;58652.34;5090103;27;45261;-96
2021/09/08 01:19:38;;;;;;;;;12.50;11.75;;;;;-147.91;100.00;58652.34;5108843;27;45451;-96
2021/09/08 01:22:06;;;;;;;;;14.75;12.00;;;;;-147.91;100.00;58652.34;5111926;27;44782;-96
2021/09/08 01:24:36;;;;;;;;;13.00;12.00;;;;;-147.91;100.00;58652.34;5110390;27;45285;-96
2021/09/08 01:27:04;;;;;;;;;16.00;14.50;;;;;-147.91;100.00;58652.34;5090258;27;44801;-96
2021/09/08 01:29:32;;;;;;;;;13.50;13.50;;;;;-147.91;100.00;58652.34;5109690;27;45461;-96
2021/09/08 01:32:02;;;;;;;;;12.25;11.00;;;;;-147.91;100.00;58652.34;5110404;27;45412;-96
2021/09/08 01:34:29;;;;;;;;;15.25;13.75;;;;;-147.91;100.00;58652.34;5091448;27;44705;-96
2021/09/08 01:36:57;;;;;;;;;13.50;12.00;;;;;-147.91;100.00;58652.34;5104398;27;45219;-96
2021/09/08 01:39:25;;;;;;;;;11.00;10.50;;;;;-147.91;100.00;58652.34;5108192;27;45546;-96
2021/09/08 01:41:53;;;;;;;;;17.00;14.50;;;;;-147.91;100.00;58652.34;5108896;27;45406;-96
2021/09/08 01:44:24;;;;;;;;;10.75;10.75;;;;;-147.91;100.00;58652.34;5110746;27;45412;-96
2021/09/08 01:46:54;;;;;;;;;13.00;11.50;;;;;-147.91;100.00;58652.34;5107466;27;45191;-96
2021/09/08 01:49:22;;;;;;;;;12.25;11.75;;;;;-147.91;100.00;58652.34;5107673;27;45321;-96
2021/09/08 01:51:51;;;;;;;;;12.75;10.25;;;;;-147.91;100.00;58652.34;5108508;27;45397;-96
2021/09/08 01:54:20;;;;;;;;;13.75;13.25;;;;;-147.91;100.00;58652.34;5107163;27;45278;-96
2021/09/08 01:56:51;;;;;;;;;14.50;12.25;;;;;-147.91;100.00;58652.34;5088884;27;44904;-96
2021/09/08 01:59:19;;;;;;;;;16.25;12.00;;;;;-147.91;100.00;58652.34;5090598;27;45606;-96
2021/09/08 02:01:47;;;;;;;;;13.75;12.50;;;;;-147.91;100.00;58652.34;5108235;27;45403;-96
2021/09/08 02:04:14;;;;;;;;;19.00;14.00;;;;;-147.91;100.00;58652.34;5107401;27;45213;-96
2021/09/08 02:06:51;;;;;;;;;15.25;12.25;;;;;-147.91;100.00;58652.34;5108320;27;45500;-96
2021/09/08 02:09:21;;;;;;;;;13.25;13.00;;;;;-147.91;100.00;58652.34;5087077;27;45681;-96
2021/09/08 02:16:55;;;;;;;;;14.00;13.25;;;;;-147.91;100.00;58652.34;5063621;28;46540;-96
2021/09/08 02:19:21;;;;;;;;;16.50;15.50;;;;;-147.91;100.00;58652.34;5175583;22;48433;-78
2021/09/08 02:21:49;;;;;;;;;14.50;13.75;;;;;-147.91;100.00;58652.34;5095168;22;45391;-96
2021/09/08 02:24:17;;;;;;;;;16.50;15.00;;;;;-147.91;100.00;58652.34;5086900;27;44820;-96
2021/09/08 02:26:45;;;;;;;;;16.75;14.50;;;;;-147.91;100.00;58652.34;5083929;28;45406;-96
2021/09/08 02:29:14;;;;;;;;;15.00;14.50;;;;;-147.91;100.00;58652.34;5085359;28;45391;-96
2021/09/08 02:31:41;;;;;;;;;15.00;13.25;;;;;-147.91;100.00;58652.34;5084669;28;45647;-96
2021/09/08 02:34:09;;;;;;;;;16.25;13.75;;;;;-147.91;100.00;58652.34;5086317;28;45282;-96
2021/09/08 02:36:37;;;;;;;;;15.50;15.25;;;;;-147.91;100.00;58652.34;5083874;28;45509;-96
2021/09/08 02:39:06;;;;;;;;;19.25;15.50;;;;;-147.91;100.00;58652.34;5083455;28;45554;-96
2021/09/08 02:41:34;;;;;;;;;19.50;14.75;;;;;-147.91;100.00;58652.34;5083921;28;45096;-95
2021/09/08 02:44:02;;;;;;;;;16.50;13.50;;;;;-147.91;100.00;58652.34;5083279;28;45436;-95
2021/09/08 02:46:30;;;;;;;;;15.50;15.00;;;;;-147.91;100.00;58652.34;5085196;28;45666;-95
2021/09/08 02:48:57;;;;;;;;;16.75;15.00;;;;;-147.91;100.00;58652.34;5084136;28;45680;-96
2021/09/08 02:51:25;;;;;;;;;16.50;13.00;;;;;-147.91;100.00;58652.34;5086700;28;45378;-96
2021/09/08 02:53:52;;;;;;;;;15.25;14.50;;;;;-147.91;100.00;58652.34;5068510;28;45246;-95
2021/09/08 02:56:20;;;;;;;;;19.50;16.75;;;;;-147.91;100.00;58652.34;5084449;28;45482;-96
2021/09/08 02:58:47;;;;;;;;;15.75;15.00;;;;;-147.91;100.00;58652.34;5086106;28;45435;-96
2021/09/08 03:01:15;;;;;;;;;16.75;15.75;;;;;-147.91;100.00;58652.34;5085463;28;45281;-96
2021/09/08 03:03:42;;;;;;;;;19.50;16.00;;;;;-147.91;100.00;58652.34;5085304;28;45189;-96
2021/09/08 03:06:14;;;;;;;;;19.00;13.75;;;;;-147.91;100.00;58652.34;5091323;28;45323;-96
2021/09/08 03:11:15;;;;;;;;;18.50;12.50;;;;;-147.91;100.00;58652.34;5208607;22;48305;-79
2021/09/08 03:13:43;;;;;;;;;18.75;17.00;;;;;-147.91;100.00;58652.34;5132195;22;45911;-95
2021/09/08 03:16:11;;;;;;;;;19.00;17.00;;;;;-147.91;100.00;58652.34;5043746;28;45244;-96
2021/09/08 03:18:39;;;;;;;;;16.25;15.50;;;;;-147.91;100.00;58652.34;5022966;28;45449;-96
2021/09/08 03:21:06;;;;;;;;;14.75;13.75;;;;;-147.91;100.00;58652.34;5040851;28;45583;-96
2021/09/08 03:23:36;;;;;;;;;20.25;15.50;;;;;-147.91;100.00;58652.34;5040194;28;45155;-96
2021/09/08 03:26:04;;;;;;;;;16.75;15.25;;;;;-147.91;100.00;58652.34;5041619;28;45343;-96
2021/09/08 03:28:31;;;;;;;;;19.50;16.25;;;;;-147.91;100.00;58652.34;5039714;28;45432;-96
2021/09/08 03:31:00;;;;;;;;;16.00;15.00;;;;;-147.91;100.00;58652.34;5041671;28;45301;-96
2021/09/08 03:33:28;;;;;;;;;18.25;15.25;;;;;-147.91;100.00;58652.34;5039751;28;45574;-96
2021/09/08 03:35:56;;;;;;;;;22.25;15.50;;;;;-147.91;100.00;58652.34;5026421;28;45348;-96
2021/09/08 03:38:23;;;;;;;;;24.00;19.25;;;;;-147.91;100.00;58652.34;5041542;28;45567;-96
2021/09/08 03:40:51;;;;;;;;;15.25;13.50;;;;;-147.91;100.00;58652.34;5043597;28;45367;-96
2021/09/08 03:43:19;;;;;;;;;16.25;14.25;;;;;-147.91;100.00;58652.34;5043190;28;45226;-96
2021/09/08 03:45:47;;;;;;;;;17.00;16.25;;;;;-147.91;100.00;58652.34;5040119;28;45613;-96
2021/09/08 03:48:14;;;;;;;;;20.00;15.00;;;;;-147.91;100.00;58652.34;5038748;28;45499;-96
2021/09/08 03:50:41;;;;;;;;;17.75;17.25;;;;;-147.91;100.00;58652.34;5039124;28;45604;-95
2021/09/08 03:53:09;;;;;;;;;19.00;17.00;;;;;-147.91;100.00;58652.34;5021940;28;45396;-96
2021/09/08 03:55:36;;;;;;;;;22.25;16.00;;;;;-147.91;100.00;58652.34;5023810;28;45407;-96
2021/09/08 03:58:04;;;;;;;;;15.75;15.00;;;;;-147.91;100.00;58652.34;5040644;28;45436;-96
2021/09/08 04:00:34;;;;;;;;;17.00;16.50;;;;;-147.91;100.00;58652.34;5033724;28;45362;-95
2021/09/08 04:03:01;;;;;;;;;21.00;18.25;;;;;-147.91;100.00;58652.34;5051672;28;45580;-96
2021/09/08 04:05:29;;;;;;;;;17.25;15.75;;;;;-147.91;100.00;58652.34;5053779;28;44892;-96
2021/09/08 04:07:57;;;;;;;;;21.50;16.00;;;;;-147.91;100.00;58652.34;5051573;28;45537;-96
2021/09/08 04:10:25;;;;;;;;;18.75;17.00;;;;;-147.91;100.00;58652.34;5031951;28;45462;-96
2021/09/08 04:15:28;;;;;;;;;16.25;16.25;;;;;-147.91;100.00;58652.34;5055632;28;47325;-79
2021/09/08 04:17:54;;;;;;;;;18.75;17.25;;;;;-147.91;100.00;58652.34;5057131;28;46083;-79
2021/09/08 04:20:20;;;;;;;;;16.25;14.75;;;;;-147.91;100.00;58652.34;5048769;27;47943;-79
2021/09/08 04:22:51;;;;;;;;;19.50;15.50;;;;;-147.91;100.00;58652.34;5238989;22;45320;-96
2021/09/08 04:25:21;;;;;;;;;18.50;16.75;;;;;-147.91;100.00;58652.34;5061761;28;44901;-96
2021/09/08 04:27:50;;;;;;;;;18.50;17.00;;;;;-147.91;100.00;58652.34;5060758;28;45676;-96
2021/09/08 04:30:30;;;;;;;;;18.00;16.25;;;;;-147.91;100.00;58652.34;5079560;28;44739;-96
2021/09/08 04:33:18;;;;;;;;;17.50;15.50;;;;;-147.91;100.00;58652.34;5065609;28;44737;-96
2021/09/08 04:35:48;;;;;;;;;19.00;15.00;;;;;-147.91;100.00;58652.34;5063530;28;44836;-96
2021/09/08 04:38:24;;;;;;;;;17.75;14.25;;;;;-147.91;100.00;58652.34;5065514;28;46588;-96
2021/09/08 04:40:54;;;;;;;;;16.00;16.00;;;;;-147.91;100.00;58652.34;5080298;28;44849;-96
2021/09/08 04:43:22;;;;;;;;;23.50;18.75;;;;;-147.91;100.00;58652.34;5049940;28;45229;-96
2021/09/08 04:45:51;;;;;;;;;15.25;14.75;;;;;-147.91;100.00;58652.34;5057976;28;44806;-96
2021/09/08 04:48:19;;;;;;;;;18.00;16.50;;;;;-147.91;100.00;58652.34;5055498;28;45755;-96
2021/09/08 04:50:49;;;;;;;;;15.50;14.25;;;;;-147.91;100.00;58652.34;5070616;28;45342;-96
2021/09/08 04:53:18;;;;;;;;;16.25;15.00;;;;;-147.91;100.00;58652.34;5077947;28;44773;-96
2021/09/08 04:55:57;;;;;;;;;20.50;18.75;;;;;-147.91;100.00;58652.34;5077814;28;44813;-96
2021/09/08 04:58:35;;;;;;;;;19.75;16.25;;;;;-147.91;100.00;58652.34;5075496;28;46472;-96
2021/09/08 05:01:09;;;;;;;;;17.75;16.00;;;;;-147.91;100.00;58652.34;5061080;28;45242;-96
2021/09/08 05:03:41;;;;;;;;;16.25;14.75;;;;;-147.91;100.00;58652.34;5074084;28;44761;-95
2021/09/08 05:06:13;;;;;;;;;18.00;15.00;;;;;-147.91;100.00;58652.34;5077455;27;44847;-96
2021/09/08 05:08:45;;;;;;;;;18.00;17.00;;;;;-147.91;100.00;58652.34;5062412;28;47725;-96
2021/09/08 05:11:14;;;;;;;;;20.25;16.25;;;;;-147.91;100.00;58652.34;5059000;28;45484;-96
2021/09/08 05:13:46;;;;;;;;;16.25;16.25;;;;;-147.91;100.00;58652.34;5069673;28;45320;-96
2021/09/08 05:16:14;;;;;;;;;17.25;16.00;;;;;-147.91;100.00;58652.34;5054075;28;44825;-96
2021/09/08 05:18:45;;;;;;;;;18.00;14.25;;;;;-147.91;100.00;58652.34;5056120;28;47722;-96
2021/09/08 05:21:13;;;;;;;;;20.50;18.00;;;;;-147.91;100.00;58652.34;5054147;28;44918;-96
2021/09/08 05:23:39;;;;;;;;;21.00;16.00;;;;;-147.91;100.00;58652.34;5095730;22;45824;-78
2021/09/08 05:26:05;;;;;;;;;19.00;16.00;;;;;-147.91;100.00;58652.34;5062784;27;45648;-78
2021/09/08 05:28:32;;;;;;;;;23.00;21.00;;;;;-147.91;100.00;58652.34;5062837;27;47286;-78
2021/09/08 05:30:58;;;;;;;;;19.50;16.75;;;;;-147.91;100.00;58652.34;5061729;27;45719;-78
2021/09/08 05:33:24;;;;;;;;;21.00;19.00;;;;;-147.91;100.00;58652.34;5075287;27;45464;-78
2021/09/08 05:41:17;;;;;;;;;22.25;19.00;;;;;-147.91;100.00;58652.34;5399761;22;45785;-96
2021/09/08 05:43:47;;;;;;;;;18.75;16.00;;;;;-147.91;100.00;58652.34;5103589;27;44830;-96
2021/09/08 05:46:25;;;;;;;;;20.25;18.25;;;;;-147.91;100.00;58652.34;5106259;27;45382;-96
2021/09/08 05:48:59;;;;;;;;;18.00;17.75;;;;;-147.91;100.00;58652.34;5107056;27;47227;-96
2021/09/08 05:51:54;;;;;;;;;18.75;17.50;;;;;-147.91;100.00;58652.34;5100395;27;45339;-96
2021/09/08 05:54:44;;;;;;;;;17.50;17.50;;;;;-147.91;100.00;58652.34;5078926;27;44758;-96
2021/09/08 05:57:14;;;;;;;;;17.00;15.75;;;;;-147.91;100.00;58652.34;5060208;28;44905;-96
2021/09/08 05:59:49;;;;;;;;;18.25;15.25;;;;;-147.91;100.00;58652.34;5075631;28;45598;-96
2021/09/08 06:02:18;;;;;;;;;21.00;17.00;;;;;-147.91;100.00;58652.34;5078632;27;44854;-96
2021/09/08 06:04:51;;;;;;;;;17.00;16.00;;;;;-147.91;100.00;58652.34;5075450;27;44792;-96
2021/09/08 06:07:19;;;;;;;;;16.75;14.50;;;;;-147.91;100.00;58652.34;5066216;28;45296;-96
2021/09/08 06:09:50;;;;;;;;;19.75;19.50;;;;;-147.91;100.00;58652.34;5063564;28;45236;-96
2021/09/08 06:12:18;;;;;;;;;18.00;15.25;;;;;-147.91;100.00;58652.34;5065201;28;45420;-95
2021/09/08 06:14:45;;;;;;;;;23.25;16.00;;;;;-147.91;100.00;58652.34;5047983;28;45282;-96
2021/09/08 06:17:13;;;;;;;;;21.00;15.75;;;;;-147.91;100.00;58652.34;5065951;28;45594;-94
2021/09/08 06:19:40;;;;;;;;;18.25;17.00;;;;;-147.91;100.00;58652.34;5050206;28;45578;-96
2021/09/08 06:22:09;;;;;;;;;19.00;16.25;;;;;-147.91;100.00;58652.34;5054307;28;44764;-96
2021/09/08 06:24:42;;;;;;;;;23.75;17.75;;;;;-147.91;100.00;58652.34;5069414;28;44712;-96
2021/09/08 06:27:10;;;;;;;;;20.75;16.25;;;;;-147.91;100.00;58652.34;5047863;28;45200;-96
2021/09/08 06:29:38;;;;;;;;;20.00;17.00;;;;;-147.91;100.00;58652.34;5070749;28;45519;-96
2021/09/08 06:32:18;;;;;;;;;17.50;16.25;;;;;-147.91;100.00;58652.34;5076716;27;45536;-96
2021/09/08 06:34:48;;;;;;;;;23.25;19.00;;;;;-147.91;100.00;58652.34;5109117;27;44626;-96
2021/09/08 06:37:17;;;;;;;;;24.25;18.50;;;;;-147.91;100.00;58652.34;5088216;27;45450;-96
2021/09/08 06:39:59;;;;;;;;;21.00;17.75;;;;;-147.91;100.00;58652.34;5088435;27;46359;-95
2021/09/08 06:42:25;;;;;;;;;22.00;15.75;;;;;-147.91;100.00;58652.34;5115939;22;45318;-85
2021/09/08 06:44:54;;;;;;;;;23.00;19.25;;;;;-147.91;100.00;58652.34;5001252;28;45582;-84
2021/09/08 06:49:50;;;;;;;;;15.25;15.00;;;;;-147.91;100.00;58652.34;5440583;22;46259;-83
2021/09/08 06:52:18;;;;;;;;;21.50;16.75;;;;;-147.91;100.00;58652.34;5087134;22;45702;-95
2021/09/08 06:54:46;;;;;;;;;19.25;18.25;;;;;-147.91;100.00;58652.34;5086105;28;45442;-96
2021/09/08 07:02:21;;;;;;;;;24.50;18.50;;;;;-147.91;100.00;58652.34;5125586;22;45623;-96
2021/09/08 07:04:48;;;;;;;;;21.00;19.50;;;;;-147.91;100.00;58652.34;5081914;28;45252;-94
2021/09/08 07:07:18;;;;;;;;;17.25;17.25;;;;;-147.91;100.00;58652.34;5082313;28;45589;-95
2021/09/08 07:09:45;;;;;;;;;18.25;16.25;;;;;-147.91;100.00;58652.34;5081777;28;45628;-95
2021/09/08 07:12:10;;;;;;;;;16.50;15.25;;;;;-147.91;100.00;58652.34;5084643;22;46752;-85
2021/09/08 07:14:36;;;;;;;;;19.75;18.75;;;;;-147.91;100.00;58652.34;5044421;28;46302;-85
2021/09/08 07:17:02;;;;;;;;;20.00;18.00;;;;;-147.91;100.00;58652.34;5039842;28;45918;-81
2021/09/08 07:20:15;;;;;;;;;;;;;;;;;;;;;
2021/09/08 07:23:22;;;;;;;;;17.25;17.25;;;;;-147.91;100.00;58652.34;5039238;28;72175;-95
2021/09/08 07:25:49;;;;;;;;;16.00;15.75;;;;;-147.91;100.00;58652.34;5039818;28;45391;-95
2021/09/08 07:28:17;;;;;;;;;17.50;16.00;;;;;-147.91;100.00;58652.34;5020324;28;45480;-95
2021/09/08 07:30:45;;;;;;;;;16.75;14.25;;;;;-147.91;100.00;58652.34;5039656;28;45313;-95
2021/09/08 07:33:12;;;;;;;;;20.75;19.00;;;;;-147.91;100.00;58652.34;5039333;28;45229;-96
2021/09/08 07:35:41;;;;;;;;;17.00;15.25;;;;;-147.91;100.00;58652.34;5021360;28;45211;-93
2021/09/08 07:38:07;;;;;;;;;23.25;18.00;;;;;-147.91;100.00;58652.34;5040309;28;45194;-93
2021/09/08 07:40:43;;;;;;;;;18.00;17.50;;;;;-147.91;100.00;58652.34;5043972;28;45330;-96
2021/09/08 07:43:11;;;;;;;;;18.50;16.50;;;;;-147.91;100.00;58652.34;5043364;28;45542;-95
2021/09/08 07:45:39;;;;;;;;;17.50;16.50;;;;;-147.91;100.00;58652.34;5027256;28;45539;-94
2021/09/08 07:48:18;;;;;;;;;19.00;18.00;;;;;-147.91;100.00;58652.34;5024615;28;45317;-96
2021/09/08 07:50:44;;;;;;;;;17.50;15.75;;;;;-147.91;100.00;58652.34;5077214;22;45665;-84
2021/09/08 07:53:10;;;;;;;;;21.00;19.75;;;;;-147.91;100.00;58652.34;5065451;27;45624;-83
2021/09/08 07:55:37;;;;;;;;;16.50;16.25;;;;;-147.91;100.00;58652.34;5070233;27;45585;-83
2021/09/08 07:58:03;;;;;;;;;22.25;16.75;;;;;-147.91;100.00;58652.34;5070682;27;45456;-81
2021/09/08 08:00:30;;;;;;;;;16.75;16.50;;;;;-147.91;100.00;58652.34;5069848;27;46332;-83
2021/09/08 08:02:55;;;;;;;;;22.00;18.00;;;;;-147.91;100.00;58652.34;5082224;27;45760;-84
2021/09/08 08:05:21;;;;;;;;;16.50;16.25;;;;;-147.91;100.00;58652.34;5069795;27;45956;-84
2021/09/08 08:07:47;;;;;;;;;18.25;14.75;;;;;-147.91;100.00;58652.34;5070925;27;46736;-84
2021/09/08 08:10:14;;;;;;;;;20.75;19.00;;;;;-147.91;100.00;58652.34;5079055;27;45745;-84
2021/09/08 08:12:40;;;;;;;;;20.00;16.75;;;;;-147.91;100.00;58652.34;5076234;27;45789;-84
2021/09/08 08:15:07;;;;;;;;;18.25;17.00;;;;;-147.91;100.00;58652.34;5079964;27;47039;-83
2021/09/08 08:17:33;;;;;;;;;21.75;16.25;;;;;-147.91;100.00;58652.34;5080683;27;45567;-83
2021/09/08 08:19:59;;;;;;;;;21.00;16.50;;;;;-147.91;100.00;58652.34;5053311;28;47183;-85
2021/09/08 08:22:25;;;;;;;;;19.25;17.75;;;;;-147.91;100.00;58652.34;5074077;27;46383;-84
2021/09/08 08:24:50;;;;;;;;;17.00;16.25;;;;;-147.91;100.00;58652.34;5078009;27;45597;-84
2021/09/08 08:27:16;;;;;;;;;18.75;15.75;;;;;-147.91;100.00;58652.34;5057628;27;45623;-82
2021/09/08 08:29:42;;;;;;;;;19.50;17.25;;;;;-147.91;100.00;58652.34;5081177;27;45527;-83
2021/09/08 08:32:08;;;;;;;;;17.00;16.00;;;;;-147.91;100.00;58652.34;5076152;27;45843;-83
2021/09/08 08:34:33;;;;;;;;;22.75;19.75;;;;;-147.91;100.00;58652.34;5081154;27;45529;-86
2021/09/08 08:36:59;;;;;;;;;22.25;19.00;;;;;-147.91;100.00;58652.34;5051560;27;45825;-81
2021/09/08 08:39:24;;;;;;;;;23.25;19.00;;;;;-147.91;100.00;58652.34;5073694;27;45911;-81
2021/09/08 08:41:50;;;;;;;;;20.00;15.25;;;;;-147.91;100.00;58652.34;5067349;27;45522;-85
2021/09/08 08:44:19;;;;;;;;;22.25;18.00;;;;;-147.91;100.00;58652.34;5076954;27;45696;-83
2021/09/08 08:46:44;;;;;;;;;18.50;15.75;;;;;-147.91;100.00;58652.34;5065019;27;46694;-82
2021/09/08 08:49:10;;;;;;;;;19.00;19.00;;;;;-147.91;100.00;58652.34;5081589;27;47100;-83
2021/09/08 08:51:36;;;;;;;;;18.50;16.75;;;;;-147.91;100.00;58652.34;5081975;27;46092;-84
2021/09/08 08:54:01;;;;;;;;;17.00;17.00;;;;;-147.91;100.00;58652.34;5085023;27;45492;-85
2021/09/08 08:56:26;;;;;;;;;19.25;16.75;;;;;-147.91;100.00;58652.34;5078536;27;46342;-83
2021/09/08 08:58:53;;;;;;;;;20.50;15.00;;;;;-147.91;100.00;58652.34;5043909;28;46760;-86
2021/09/08 09:01:21;;;;;;;;;15.25;14.75;;;;;-147.91;100.00;58652.34;5078825;27;45694;-87
2021/09/08 09:04:00;;;;;;;;;16.50;15.50;;;;;-147.91;100.00;58652.34;5050273;28;45622;-86
2021/09/08 09:06:26;;;;;;;;;17.75;17.25;;;;;-147.91;100.00;58652.34;5070859;27;45623;-87
2021/09/08 09:09:13;;;;;;;;;20.75;16.75;;;;;-147.91;100.00;58652.34;5055536;28;48553;-85
2021/09/08 09:11:40;;;;;;;;;19.50;17.75;;;;;-147.91;100.00;58652.34;5069043;27;45810;-82
2021/09/08 09:14:08;;;;;;;;;16.00;15.50;;;;;-147.91;100.00;58652.34;5070854;27;45569;-81
2021/09/08 09:16:35;;;;;;;;;18.50;17.75;;;;;-147.91;100.00;58652.34;5072466;27;45607;-81
2021/09/08 09:19:01;;;;;;;;;16.50;14.50;;;;;-147.91;100.00;58652.34;5076231;27;46500;-84
2021/09/08 09:21:27;;;;;;;;;15.25;13.75;;;;;-147.91;100.00;58652.34;5073559;27;45511;-83
2021/09/08 09:23:58;;;;;;;;;17.50;16.00;;;;;-147.91;100.00;58652.34;5074394;27;45499;-85
2021/09/08 09:26:26;;;;;;;;;15.50;14.00;;;;;-147.91;100.00;58652.34;5080705;27;46162;-83
2021/09/08 09:28:54;;;;;;;;;17.75;17.25;;;;;-147.91;100.00;58652.34;5066258;27;47082;-83
2021/09/08 09:31:22;;;;;;;;;17.50;16.00;;;;;-147.91;100.00;58652.34;5067992;27;45988;-81
2021/09/08 09:33:54;;;;;;;;;19.00;17.75;;;;;-147.91;100.00;58652.34;5065826;27;45876;-84
2021/09/08 09:36:22;;;;;;;;;18.25;14.75;;;;;-147.91;100.00;58652.34;5067986;27;45820;-82
2021/09/08 09:38:50;;;;;;;;;20.75;17.25;;;;;-147.91;100.00;58652.34;5083213;27;45698;-82
2021/09/08 09:41:20;;;;;;;;;15.00;14.50;;;;;-147.91;100.00;58652.34;5062354;27;45522;-83
2021/09/08 09:43:46;;;;;;;;;21.50;15.25;;;;;-147.91;100.00;58652.34;5067390;27;45554;-81
2021/09/08 09:46:13;;;;;;;;;17.25;14.25;;;;;-147.91;100.00;58652.34;5066930;27;45537;-83
2021/09/08 09:48:38;;;;;;;;;18.00;14.50;;;;;-147.91;100.00;58652.34;5072904;27;45786;-83
2021/09/08 09:51:05;;;;;;;;;17.25;16.25;;;;;-147.91;100.00;58652.34;5051839;27;50403;-82
2021/09/08 09:53:32;;;;;;;;;19.25;15.75;;;;;-147.91;100.00;58652.34;5059052;27;46044;-82
2021/09/08 09:55:59;;;;;;;;;16.25;16.00;;;;;-147.91;100.00;58652.34;5066919;27;45536;-83
2021/09/08 09:58:25;;;;;;;;;16.75;14.00;;;;;-147.91;100.00;58652.34;5080405;27;45880;-81
2021/09/08 10:00:54;;;;;;;;;16.25;13.25;;;;;-147.91;100.00;58652.34;5070426;27;45651;-83
2021/09/08 10:03:20;;;;;;;;;17.50;16.50;;;;;-147.91;100.00;58652.34;5068031;27;46128;-83
2021/09/08 10:05:46;;;;;;;;;20.25;15.75;;;;;-147.91;100.00;58652.34;5064809;27;45548;-82
2021/09/08 10:08:17;;;;;;;;;14.00;13.75;;;;;-147.91;100.00;58652.34;5061078;27;46161;-82
2021/09/08 10:10:45;;;;;;;;;17.25;15.25;;;;;-147.91;100.00;58652.34;5065840;27;45589;-80
2021/09/08 10:13:26;;;;;;;;;17.75;15.50;;;;;-147.91;100.00;58652.34;5066387;27;45642;-84
2021/09/08 10:15:53;;;;;;;;;16.00;14.00;;;;;-147.91;100.00;58652.34;5056287;27;46038;-82
2021/09/08 10:18:22;;;;;;;;;18.50;15.00;;;;;-147.91;100.00;58652.34;5076571;27;45607;-83
2021/09/08 10:21:05;;;;;;;;;14.75;14.75;;;;;-147.91;100.00;58652.34;5059620;27;45729;-80
2021/09/08 10:23:38;;;;;;;;;14.50;14.00;;;;;-147.91;100.00;58652.34;5072886;27;45696;-83
2021/09/08 10:26:17;;;;;;;;;21.75;15.00;;;;;-147.91;100.00;58652.34;5079539;27;45569;-83
2021/09/08 10:28:45;;;;;;;;;14.50;13.50;;;;;-147.91;100.00;58652.34;5070598;27;45651;-83
2021/09/08 10:31:13;;;;;;;;;14.50;14.25;;;;;-147.91;100.00;58652.34;5069919;27;45570;-81
2021/09/08 10:33:39;;;;;;;;;14.75;13.75;;;;;-147.91;100.00;58652.34;5063828;27;45525;-83
2021/09/08 10:36:10;;;;;;;;;14.25;14.00;;;;;-147.91;100.00;58652.34;5089269;27;45409;-83
2021/09/08 10:38:36;;;;;;;;;15.25;13.50;;;;;-147.91;100.00;58652.34;5078770;27;46286;-82
2021/09/08 10:41:06;;;;;;;;;23.25;16.25;;;;;-147.91;100.00;58652.34;5058031;27;45598;-82
2021/09/08 10:43:35;;;;;;;;;17.50;15.00;;;;;-147.91;100.00;58652.34;5077337;27;45586;-83
2021/09/08 10:46:03;;;;;;;;;17.75;15.75;;;;;-147.91;100.00;58652.34;5067599;27;46093;-82
2021/09/08 10:48:43;;;;;;;;;21.00;17.50;;;;;-147.91;100.00;58652.34;5064737;27;46315;-83
2021/09/08 10:51:39;;;;;;;;;18.00;16.00;;;;;-147.91;100.00;58652.34;5036840;27;46179;-83
2021/09/08 10:54:06;;;;;;;;;17.50;14.00;;;;;-147.91;100.00;58652.34;5070412;27;46683;-82
2021/09/08 10:56:45;;;;;;;;;21.00;15.00;;;;;-147.91;100.00;58652.34;5077535;27;45854;-82
2021/09/08 10:59:11;;;;;;;;;13.75;13.75;;;;;-147.91;100.00;58652.34;5050375;27;45811;-82
2021/09/08 11:01:37;;;;;;;;;17.50;16.25;;;;;-147.91;100.00;58652.34;5055117;28;45945;-83
2021/09/08 11:04:03;;;;;;;;;17.00;16.00;;;;;-147.91;100.00;58652.34;5072497;27;45579;-83
2021/09/08 11:06:33;;;;;;;;;19.50;16.00;;;;;-147.91;100.00;58652.34;5043481;27;45605;-83
2021/09/08 11:09:04;;;;;;;;;16.25;14.00;;;;;-147.91;100.00;58652.34;5082973;27;45393;-80
2021/09/08 11:11:30;;;;;;;;;18.50;17.00;;;;;-147.91;100.00;58652.34;5058662;27;45683;-80
2021/09/08 11:13:55;;;;;;;;;14.50;14.50;;;;;-147.91;100.00;58652.34;5069320;27;45711;-79
2021/09/08 11:16:27;;;;;;;;;16.25;15.50;;;;;-147.91;100.00;58652.34;5072114;27;45635;-78
2021/09/08 11:18:56;;;;;;;;;20.25;15.25;;;;;-147.91;100.00;58652.34;5068413;27;46191;-76
2021/09/08 11:21:24;;;;;;;;;17.00;13.25;;;;;-147.91;100.00;58652.34;5055139;27;45670;-76
2021/09/08 11:24:01;;;;;;;;;17.50;15.50;;;;;-147.91;100.00;58652.34;5071246;27;45528;-76
2021/09/08 11:26:29;;;;;;;;;16.00;15.50;;;;;-147.91;100.00;58652.34;5073007;27;45645;-76